sensor_id;sensor_type;location;lat;lon;timestamp;pressure;altitude;pressure_sealevel;temperature;humidity
15634;BME280;14654;48.898;8.308;2024-02-23T00:02:13;98293.03;;;8.07;100.00
15634;BME280;14654;48.898;8.308;2024-02-23T00:04:38;98297.53;;;7.99;100.00
15634;BME280;14654;48.898;8.308;2024-02-23T00:07:04;98296.94;;;7.90;100.00
15634;BME280;14654;48.898;8.308;2024-02-23T00:09:29;98303.13;;;7.85;100.00
15634;BME280;14654;48.898;8.308;2024-02-23T00:11:54;98300.59;;;7.83;100.00
15634;BME280;14654;48.898;8.308;2024-02-23T00:14:20;98298.88;;;7.84;100.00
15634;BME280;14654;48.898;8.308;2024-02-23T00:16:46;98303.88;;;7.88;100.00
15634;BME280;14654;48.898;8.308;2024-02-23T00:19:11;98315.06;;;7.87;100.00
15634;BME280;14654;48.898;8.308;2024-02-23T00:21:37;98317.47;;;7.93;100.00
15634;BME280;14654;48.898;8.308;2024-02-23T00:24:03;98322.84;;;7.86;100.00
15634;BME280;14654;48.898;8.308;2024-02-23T00:26:29;98311.78;;;7.82;100.00
15634;BME280;14654;48.898;8.308;2024-02-23T00:28:55;98326.63;;;7.72;100.00
15634;BME280;14654;48.898;8.308;2024-02-23T00:31:20;98332.06;;;7.63;100.00
15634;BME280;14654;48.898;8.308;2024-02-23T00:33:46;98334.16;;;7.80;100.00
15634;BME280;14654;48.898;8.308;2024-02-23T00:36:11;98325.97;;;7.66;100.00
15634;BME280;14654;48.898;8.308;2024-02-23T00:38:36;98330.25;;;7.67;100.00
15634;BME280;14654;48.898;8.308;2024-02-23T00:41:02;98312.56;;;7.56;100.00
15634;BME280;14654;48.898;8.308;2024-02-23T00:43:27;98320.13;;;7.60;100.00
15634;BME280;14654;48.898;8.308;2024-02-23T00:45:55;98342.50;;;7.58;100.00
15634;BME280;14654;48.898;8.308;2024-02-23T00:48:20;98347.06;;;7.48;100.00
15634;BME280;14654;48.898;8.308;2024-02-23T00:50:45;98352.28;;;7.45;100.00
15634;BME280;14654;48.898;8.308;2024-02-23T00:53:10;98354.97;;;7.41;100.00
15634;BME280;14654;48.898;8.308;2024-02-23T00:55:36;98362.66;;;7.42;100.00
15634;BME280;14654;48.898;8.308;2024-02-23T00:58:01;98360.88;;;7.44;100.00
15634;BME280;14654;48.898;8.308;2024-02-23T01:00:27;98364.47;;;7.39;100.00
15634;BME280;14654;48.898;8.308;2024-02-23T01:02:52;98349.16;;;7.34;100.00
15634;BME280;14654;48.898;8.308;2024-02-23T01:05:18;98351.69;;;7.36;100.00
15634;BME280;14654;48.898;8.308;2024-02-23T01:07:43;98352.34;;;7.42;100.00
15634;BME280;14654;48.898;8.308;2024-02-23T01:10:09;98361.94;;;7.37;100.00
15634;BME280;14654;48.898;8.308;2024-02-23T01:12:35;98367.25;;;7.31;100.00
15634;BME280;14654;48.898;8.308;2024-02-23T01:15:02;98363.97;;;7.26;100.00
15634;BME280;14654;48.898;8.308;2024-02-23T01:17:27;98365.81;;;7.21;100.00
15634;BME280;14654;48.898;8.308;2024-02-23T01:19:53;98370.09;;;7.20;100.00
15634;BME280;14654;48.898;8.308;2024-02-23T01:22:18;98396.84;;;7.14;100.00
15634;BME280;14654;48.898;8.308;2024-02-23T01:24:43;98394.44;;;7.07;100.00
15634;BME280;14654;48.898;8.308;2024-02-23T01:27:09;98377.31;;;7.07;100.00
15634;BME280;14654;48.898;8.308;2024-02-23T01:29:34;98381.78;;;7.00;100.00
15634;BME280;14654;48.898;8.308;2024-02-23T01:31:59;98379.06;;;7.05;100.00
15634;BME280;14654;48.898;8.308;2024-02-23T01:34:25;98379.25;;;6.97;100.00
15634;BME280;14654;48.898;8.308;2024-02-23T01:36:51;98390.28;;;7.03;100.00
15634;BME280;14654;48.898;8.308;2024-02-23T01:39:16;98403.44;;;6.90;100.00
15634;BME280;14654;48.898;8.308;2024-02-23T01:41:41;98398.25;;;6.92;100.00
15634;BME280;14654;48.898;8.308;2024-02-23T01:44:09;98419.03;;;6.84;100.00
15634;BME280;14654;48.898;8.308;2024-02-23T01:46:34;98422.47;;;6.83;100.00
15634;BME280;14654;48.898;8.308;2024-02-23T01:49:00;98426.75;;;6.84;100.00
15634;BME280;14654;48.898;8.308;2024-02-23T01:51:25;98418.09;;;6.86;100.00
15634;BME280;14654;48.898;8.308;2024-02-23T01:53:51;98419.13;;;6.79;100.00
15634;BME280;14654;48.898;8.308;2024-02-23T01:56:17;98423.41;;;6.79;100.00
15634;BME280;14654;48.898;8.308;2024-02-23T01:58:46;98415.59;;;6.83;100.00
15634;BME280;14654;48.898;8.308;2024-02-23T02:01:11;98412.88;;;6.90;100.00
15634;BME280;14654;48.898;8.308;2024-02-23T02:03:38;98409.31;;;6.95;100.00
15634;BME280;14654;48.898;8.308;2024-02-23T02:06:05;98420.41;;;6.97;100.00
15634;BME280;14654;48.898;8.308;2024-02-23T02:08:33;98412.72;;;6.96;100.00
15634;BME280;14654;48.898;8.308;2024-02-23T02:10:58;98417.84;;;6.97;100.00
15634;BME280;14654;48.898;8.308;2024-02-23T02:13:24;98417.09;;;6.94;100.00
15634;BME280;14654;48.898;8.308;2024-02-23T02:15:49;98421.44;;;6.90;100.00
15634;BME280;14654;48.898;8.308;2024-02-23T02:18:14;98417.16;;;6.89;100.00
15634;BME280;14654;48.898;8.308;2024-02-23T02:20:51;98409.56;;;6.84;100.00
15634;BME280;14654;48.898;8.308;2024-02-23T02:23:17;98413.19;;;6.76;100.00
15634;BME280;14654;48.898;8.308;2024-02-23T02:25:43;98412.44;;;6.72;100.00
15634;BME280;14654;48.898;8.308;2024-02-23T02:28:08;98422.78;;;6.69;100.00
15634;BME280;14654;48.898;8.308;2024-02-23T02:30:33;98419.31;;;6.71;100.00
15634;BME280;14654;48.898;8.308;2024-02-23T02:32:58;98425.13;;;6.80;100.00
15634;BME280;14654;48.898;8.308;2024-02-23T02:35:24;98426.97;;;6.73;100.00
15634;BME280;14654;48.898;8.308;2024-02-23T02:37:49;98418.34;;;6.76;100.00
15634;BME280;14654;48.898;8.308;2024-02-23T02:40:14;98422.47;;;6.83;100.00
15634;BME280;14654;48.898;8.308;2024-02-23T02:42:40;98427.72;;;6.78;100.00
15634;BME280;14654;48.898;8.308;2024-02-23T02:45:05;98424.16;;;6.84;100.00
15634;BME280;14654;48.898;8.308;2024-02-23T02:47:31;98433.50;;;6.88;100.00
15634;BME280;14654;48.898;8.308;2024-02-23T02:49:56;98435.09;;;6.92;100.00
15634;BME280;14654;48.898;8.308;2024-02-23T02:52:22;98424.81;;;6.92;100.00
15634;BME280;14654;48.898;8.308;2024-02-23T02:54:48;98435.97;;;6.91;100.00
15634;BME280;14654;48.898;8.308;2024-02-23T02:57:14;98437.53;;;6.98;100.00
15634;BME280;14654;48.898;8.308;2024-02-23T02:59:39;98443.56;;;6.97;100.00
15634;BME280;14654;48.898;8.308;2024-02-23T03:02:05;98437.47;;;7.00;100.00
15634;BME280;14654;48.898;8.308;2024-02-23T03:04:30;98445.28;;;6.97;100.00
15634;BME280;14654;48.898;8.308;2024-02-23T03:06:55;98443.56;;;6.97;100.00
15634;BME280;14654;48.898;8.308;2024-02-23T03:09:20;98449.47;;;7.01;100.00
15634;BME280;14654;48.898;8.308;2024-02-23T03:11:46;98446.09;;;6.99;100.00
15634;BME280;14654;48.898;8.308;2024-02-23T03:14:11;98449.66;;;6.93;100.00
15634;BME280;14654;48.898;8.308;2024-02-23T03:16:37;98444.56;;;6.90;100.00
15634;BME280;14654;48.898;8.308;2024-02-23T03:19:03;98435.28;;;6.84;100.00
15634;BME280;14654;48.898;8.308;2024-02-23T03:21:29;98439.66;;;6.81;100.00
15634;BME280;14654;48.898;8.308;2024-02-23T03:23:54;98440.59;;;6.77;100.00
15634;BME280;14654;48.898;8.308;2024-02-23T03:26:19;98437.25;;;6.73;100.00
15634;BME280;14654;48.898;8.308;2024-02-23T03:28:45;98434.75;;;6.71;100.00
15634;BME280;14654;48.898;8.308;2024-02-23T03:31:10;98433.81;;;6.74;100.00
15634;BME280;14654;48.898;8.308;2024-02-23T03:33:36;98421.78;;;6.75;100.00
15634;BME280;14654;48.898;8.308;2024-02-23T03:36:03;98437.16;;;6.78;100.00
15634;BME280;14654;48.898;8.308;2024-02-23T03:38:28;98437.97;;;6.80;100.00
15634;BME280;14654;48.898;8.308;2024-02-23T03:40:55;98428.50;;;6.82;100.00
15634;BME280;14654;48.898;8.308;2024-02-23T03:43:20;98437.03;;;6.84;100.00
15634;BME280;14654;48.898;8.308;2024-02-23T03:45:46;98441.28;;;6.85;100.00
15634;BME280;14654;48.898;8.308;2024-02-23T03:48:11;98444.72;;;6.84;100.00
15634;BME280;14654;48.898;8.308;2024-02-23T03:50:37;98440.53;;;6.80;100.00
15634;BME280;14654;48.898;8.308;2024-02-23T03:53:02;98446.53;;;6.80;100.00
15634;BME280;14654;48.898;8.308;2024-02-23T03:55:28;98447.31;;;6.84;100.00
15634;BME280;14654;48.898;8.308;2024-02-23T03:57:54;98443.81;;;6.86;100.00
15634;BME280;14654;48.898;8.308;2024-02-23T04:00:19;98451.59;;;6.83;100.00
15634;BME280;14654;48.898;8.308;2024-02-23T04:02:46;98453.41;;;6.80;100.00
15634;BME280;14654;48.898;8.308;2024-02-23T04:05:11;98465.41;;;6.79;100.00
15634;BME280;14654;48.898;8.308;2024-02-23T04:07:36;98464.50;;;6.82;100.00
15634;BME280;14654;48.898;8.308;2024-02-23T04:10:02;98461.88;;;6.83;100.00
15634;BME280;14654;48.898;8.308;2024-02-23T04:12:29;98459.41;;;6.79;100.00
15634;BME280;14654;48.898;8.308;2024-02-23T04:14:56;98465.38;;;6.81;100.00
15634;BME280;14654;48.898;8.308;2024-02-23T04:17:21;98463.69;;;6.80;100.00
15634;BME280;14654;48.898;8.308;2024-02-23T04:19:46;98464.56;;;6.79;100.00
15634;BME280;14654;48.898;8.308;2024-02-23T04:22:12;98462.94;;;6.75;100.00
15634;BME280;14654;48.898;8.308;2024-02-23T04:24:41;98467.19;;;6.76;100.00
15634;BME280;14654;48.898;8.308;2024-02-23T04:27:07;98468.00;;;6.78;100.00
15634;BME280;14654;48.898;8.308;2024-02-23T04:29:33;98471.44;;;6.78;100.00
15634;BME280;14654;48.898;8.308;2024-02-23T04:32:00;98459.34;;;6.82;100.00
15634;BME280;14654;48.898;8.308;2024-02-23T04:34:25;98456.78;;;6.82;100.00
15634;BME280;14654;48.898;8.308;2024-02-23T04:36:51;98452.47;;;6.82;100.00
15634;BME280;14654;48.898;8.308;2024-02-23T04:39:16;98450.81;;;6.80;100.00
15634;BME280;14654;48.898;8.308;2024-02-23T04:41:41;98454.28;;;6.79;100.00
15634;BME280;14654;48.898;8.308;2024-02-23T04:44:07;98451.69;;;6.79;100.00
15634;BME280;14654;48.898;8.308;2024-02-23T04:46:32;98456.84;;;6.79;100.00
15634;BME280;14654;48.898;8.308;2024-02-23T04:48:59;98455.03;;;6.82;100.00
15634;BME280;14654;48.898;8.308;2024-02-23T04:51:24;98457.78;;;6.76;100.00
15634;BME280;14654;48.898;8.308;2024-02-23T04:53:50;98449.19;;;6.76;100.00
15634;BME280;14654;48.898;8.308;2024-02-23T04:56:15;98450.94;;;6.74;100.00
15634;BME280;14654;48.898;8.308;2024-02-23T04:58:40;98449.19;;;6.76;100.00
15634;BME280;14654;48.898;8.308;2024-02-23T05:01:08;98457.84;;;6.73;100.00
15634;BME280;14654;48.898;8.308;2024-02-23T05:03:33;98457.88;;;6.71;100.00
15634;BME280;14654;48.898;8.308;2024-02-23T05:05:58;98456.09;;;6.74;100.00
15634;BME280;14654;48.898;8.308;2024-02-23T05:08:24;98462.09;;;6.74;100.00
15634;BME280;14654;48.898;8.308;2024-02-23T05:10:50;98459.47;;;6.77;100.00
15634;BME280;14654;48.898;8.308;2024-02-23T05:13:16;98461.34;;;6.69;100.00
15634;BME280;14654;48.898;8.308;2024-02-23T05:15:41;98462.22;;;6.68;100.00
15634;BME280;14654;48.898;8.308;2024-02-23T05:18:06;98460.53;;;6.67;100.00
15634;BME280;14654;48.898;8.308;2024-02-23T05:20:32;98471.69;;;6.66;100.00
15634;BME280;14654;48.898;8.308;2024-02-23T05:22:57;98476.09;;;6.61;100.00
15634;BME280;14654;48.898;8.308;2024-02-23T05:25:22;98470.28;;;6.52;100.00
15634;BME280;14654;48.898;8.308;2024-02-23T05:27:48;98466.88;;;6.52;100.00
15634;BME280;14654;48.898;8.308;2024-02-23T05:30:13;98456.72;;;6.46;100.00
15634;BME280;14654;48.898;8.308;2024-02-23T05:32:39;98471.47;;;6.37;100.00
15634;BME280;14654;48.898;8.308;2024-02-23T05:35:04;98472.41;;;6.33;100.00
15634;BME280;14654;48.898;8.308;2024-02-23T05:37:30;98477.69;;;6.25;100.00
15634;BME280;14654;48.898;8.308;2024-02-23T05:39:55;98477.72;;;6.24;100.00
15634;BME280;14654;48.898;8.308;2024-02-23T05:42:21;98478.72;;;6.18;100.00
15634;BME280;14654;48.898;8.308;2024-02-23T05:44:46;98481.28;;;6.17;100.00
15634;BME280;14654;48.898;8.308;2024-02-23T05:47:13;98487.31;;;6.16;100.00
15634;BME280;14654;48.898;8.308;2024-02-23T05:49:39;98489.09;;;6.12;100.00
15634;BME280;14654;48.898;8.308;2024-02-23T05:52:04;98478.00;;;6.12;100.00
15634;BME280;14654;48.898;8.308;2024-02-23T05:54:29;98476.47;;;6.01;100.00
15634;BME280;14654;48.898;8.308;2024-02-23T05:56:55;98473.28;;;5.88;100.00
15634;BME280;14654;48.898;8.308;2024-02-23T05:59:20;98478.50;;;5.82;100.00
15634;BME280;14654;48.898;8.308;2024-02-23T06:01:45;98480.38;;;5.74;100.00
15634;BME280;14654;48.898;8.308;2024-02-23T06:04:11;98477.88;;;5.69;100.00
15634;BME280;14654;48.898;8.308;2024-02-23T06:06:36;98482.22;;;5.65;100.00
15634;BME280;14654;48.898;8.308;2024-02-23T06:09:01;98484.84;;;5.62;100.00
15634;BME280;14654;48.898;8.308;2024-02-23T06:11:27;98483.22;;;5.58;100.00
15634;BME280;14654;48.898;8.308;2024-02-23T06:13:53;98481.53;;;5.57;100.00
15634;BME280;14654;48.898;8.308;2024-02-23T06:16:18;98476.41;;;5.56;100.00
15634;BME280;14654;48.898;8.308;2024-02-23T06:18:43;98481.59;;;5.53;100.00
15634;BME280;14654;48.898;8.308;2024-02-23T06:21:16;98474.84;;;5.48;100.00
15634;BME280;14654;48.898;8.308;2024-02-23T06:23:42;98474.81;;;5.50;100.00
15634;BME280;14654;48.898;8.308;2024-02-23T06:26:08;98474.00;;;5.46;100.00
15634;BME280;14654;48.898;8.308;2024-02-23T06:28:33;98478.28;;;5.47;100.00
15634;BME280;14654;48.898;8.308;2024-02-23T06:30:59;98473.09;;;5.51;100.00
15634;BME280;14654;48.898;8.308;2024-02-23T06:33:24;98465.41;;;5.51;100.00
15634;BME280;14654;48.898;8.308;2024-02-23T06:35:50;98464.56;;;5.48;100.00
15634;BME280;14654;48.898;8.308;2024-02-23T06:38:17;98471.41;;;5.49;100.00
15634;BME280;14654;48.898;8.308;2024-02-23T06:40:42;98467.97;;;5.49;100.00
15634;BME280;14654;48.898;8.308;2024-02-23T06:43:08;98465.47;;;5.46;100.00
15634;BME280;14654;48.898;8.308;2024-02-23T06:45:33;98457.00;;;5.41;100.00
15634;BME280;14654;48.898;8.308;2024-02-23T06:47:58;98456.06;;;5.45;100.00
15634;BME280;14654;48.898;8.308;2024-02-23T06:50:24;98461.31;;;5.39;100.00
15634;BME280;14654;48.898;8.308;2024-02-23T06:52:49;98464.84;;;5.33;100.00
15634;BME280;14654;48.898;8.308;2024-02-23T06:55:15;98461.44;;;5.31;100.00
15634;BME280;14654;48.898;8.308;2024-02-23T06:57:40;98458.94;;;5.28;100.00
15634;BME280;14654;48.898;8.308;2024-02-23T07:00:06;98460.66;;;5.27;100.00
15634;BME280;14654;48.898;8.308;2024-02-23T07:02:32;98462.38;;;5.27;100.00
15634;BME280;14654;48.898;8.308;2024-02-23T07:05:01;98457.28;;;5.24;100.00
15634;BME280;14654;48.898;8.308;2024-02-23T07:07:29;98453.06;;;5.21;100.00
15634;BME280;14654;48.898;8.308;2024-02-23T07:09:55;98457.38;;;5.19;100.00
15634;BME280;14654;48.898;8.308;2024-02-23T07:12:21;98460.78;;;5.19;100.00
15634;BME280;14654;48.898;8.308;2024-02-23T07:14:46;98453.94;;;5.20;100.00
15634;BME280;14654;48.898;8.308;2024-02-23T07:17:11;98452.03;;;5.31;100.00
15634;BME280;14654;48.898;8.308;2024-02-23T07:19:36;98458.94;;;5.29;100.00
15634;BME280;14654;48.898;8.308;2024-02-23T07:22:02;98462.34;;;5.28;100.00
15634;BME280;14654;48.898;8.308;2024-02-23T07:24:27;98466.53;;;5.32;100.00
15634;BME280;14654;48.898;8.308;2024-02-23T07:26:52;98464.00;;;5.31;100.00
15634;BME280;14654;48.898;8.308;2024-02-23T07:29:18;98459.66;;;5.36;100.00
15634;BME280;14654;48.898;8.308;2024-02-23T07:31:44;98461.38;;;5.36;100.00
15634;BME280;14654;48.898;8.308;2024-02-23T07:34:09;98463.09;;;5.33;100.00
15634;BME280;14654;48.898;8.308;2024-02-23T07:36:35;98465.53;;;5.41;100.00
15634;BME280;14654;48.898;8.308;2024-02-23T07:39:00;98470.63;;;5.44;100.00
15634;BME280;14654;48.898;8.308;2024-02-23T07:41:25;98474.75;;;5.53;100.00
15634;BME280;14654;48.898;8.308;2024-02-23T07:43:51;98482.94;;;5.74;100.00
15634;BME280;14654;48.898;8.308;2024-02-23T07:46:16;98481.16;;;5.77;100.00
15634;BME280;14654;48.898;8.308;2024-02-23T07:48:41;98481.03;;;5.85;100.00
15634;BME280;14654;48.898;8.308;2024-02-23T07:51:07;98493.66;;;5.96;100.00
15634;BME280;14654;48.898;8.308;2024-02-23T07:53:32;98478.09;;;6.05;100.00
15634;BME280;14654;48.898;8.308;2024-02-23T07:55:59;98487.34;;;6.14;100.00
15634;BME280;14654;48.898;8.308;2024-02-23T07:58:27;98488.81;;;6.26;100.00
15634;BME280;14654;48.898;8.308;2024-02-23T08:00:52;98479.13;;;6.39;100.00
15634;BME280;14654;48.898;8.308;2024-02-23T08:03:18;98480.59;;;6.51;100.00
15634;BME280;14654;48.898;8.308;2024-02-23T08:05:44;98478.63;;;6.62;100.00
15634;BME280;14654;48.898;8.308;2024-02-23T08:08:09;98479.28;;;6.72;100.00
15634;BME280;14654;48.898;8.308;2024-02-23T08:10:34;98474.72;;;6.83;100.00
15634;BME280;14654;48.898;8.308;2024-02-23T08:13:00;98480.50;;;6.95;100.00
15634;BME280;14654;48.898;8.308;2024-02-23T08:15:25;98481.09;;;7.05;100.00
15634;BME280;14654;48.898;8.308;2024-02-23T08:17:50;98479.19;;;7.13;100.00
15634;BME280;14654;48.898;8.308;2024-02-23T08:20:16;98484.03;;;7.25;100.00
15634;BME280;14654;48.898;8.308;2024-02-23T08:22:41;98490.66;;;7.36;100.00
15634;BME280;14654;48.898;8.308;2024-02-23T08:25:07;98483.53;;;7.47;100.00
15634;BME280;14654;48.898;8.308;2024-02-23T08:27:33;98492.69;;;7.57;100.00
15634;BME280;14654;48.898;8.308;2024-02-23T08:29:58;98492.44;;;7.67;98.95
15634;BME280;14654;48.898;8.308;2024-02-23T08:32:24;98488.84;;;7.74;97.65
15634;BME280;14654;48.898;8.308;2024-02-23T08:34:49;98490.34;;;7.81;96.44
15634;BME280;14654;48.898;8.308;2024-02-23T08:37:15;98481.59;;;7.87;95.43
15634;BME280;14654;48.898;8.308;2024-02-23T08:39:41;98482.25;;;7.95;94.60
15634;BME280;14654;48.898;8.308;2024-02-23T08:42:06;98473.47;;;8.02;92.87
15634;BME280;14654;48.898;8.308;2024-02-23T08:44:31;98476.69;;;8.11;91.92
15634;BME280;14654;48.898;8.308;2024-02-23T08:46:57;98469.50;;;8.22;90.64
15634;BME280;14654;48.898;8.308;2024-02-23T08:49:22;98472.72;;;8.30;91.49
15634;BME280;14654;48.898;8.308;2024-02-23T08:51:48;98468.78;;;8.48;91.88
15634;BME280;14654;48.898;8.308;2024-02-23T08:54:13;98466.47;;;8.67;87.49
15634;BME280;14654;48.898;8.308;2024-02-23T08:56:39;98464.63;;;8.71;86.83
15634;BME280;14654;48.898;8.308;2024-02-23T08:59:04;98465.44;;;8.73;87.42
15634;BME280;14654;48.898;8.308;2024-02-23T09:01:30;98467.13;;;8.74;86.90
15634;BME280;14654;48.898;8.308;2024-02-23T09:03:55;98461.81;;;8.79;85.70
15634;BME280;14654;48.898;8.308;2024-02-23T09:06:21;98458.25;;;8.83;85.63
15634;BME280;14654;48.898;8.308;2024-02-23T09:08:46;98457.13;;;8.92;86.88
15634;BME280;14654;48.898;8.308;2024-02-23T09:11:11;98450.03;;;8.98;87.83
15634;BME280;14654;48.898;8.308;2024-02-23T09:13:39;98461.63;;;9.13;86.56
15634;BME280;14654;48.898;8.308;2024-02-23T09:16:04;98456.31;;;9.18;86.26
15634;BME280;14654;48.898;8.308;2024-02-23T09:18:29;98459.47;;;9.26;86.30
15634;BME280;14654;48.898;8.308;2024-02-23T09:20:55;98463.22;;;9.43;86.95
15634;BME280;14654;48.898;8.308;2024-02-23T09:23:20;98456.09;;;9.50;86.07
15634;BME280;14654;48.898;8.308;2024-02-23T09:25:45;98470.44;;;9.58;85.07
15634;BME280;14654;48.898;8.308;2024-02-23T09:28:11;98465.50;;;9.52;85.03
15634;BME280;14654;48.898;8.308;2024-02-23T09:30:36;98454.91;;;9.60;85.41
15634;BME280;14654;48.898;8.308;2024-02-23T09:33:02;98456.56;;;9.61;84.66
15634;BME280;14654;48.898;8.308;2024-02-23T09:35:27;98455.69;;;9.62;85.93
15634;BME280;14654;48.898;8.308;2024-02-23T09:37:53;98464.44;;;9.58;86.50
15634;BME280;14654;48.898;8.308;2024-02-23T09:40:18;98463.41;;;9.64;85.80
15634;BME280;14654;48.898;8.308;2024-02-23T09:42:55;98450.47;;;9.64;85.29
15634;BME280;14654;48.898;8.308;2024-02-23T09:45:21;98455.69;;;9.62;86.55
15634;BME280;14654;48.898;8.308;2024-02-23T09:47:47;98441.94;;;9.61;86.56
15634;BME280;14654;48.898;8.308;2024-02-23T09:50:13;98439.47;;;9.58;86.37
15634;BME280;14654;48.898;8.308;2024-02-23T09:52:40;98446.09;;;9.66;86.53
15634;BME280;14654;48.898;8.308;2024-02-23T09:55:06;98445.41;;;9.60;87.55
15634;BME280;14654;48.898;8.308;2024-02-23T09:57:31;98437.72;;;9.59;87.12
15634;BME280;14654;48.898;8.308;2024-02-23T09:59:57;98440.44;;;9.54;87.57
15634;BME280;14654;48.898;8.308;2024-02-23T10:02:23;98445.59;;;9.56;86.87
15634;BME280;14654;48.898;8.308;2024-02-23T10:04:49;98440.41;;;9.56;86.46
15634;BME280;14654;48.898;8.308;2024-02-23T10:07:16;98438.66;;;9.56;87.00
15634;BME280;14654;48.898;8.308;2024-02-23T10:09:41;98446.31;;;9.59;87.47
15634;BME280;14654;48.898;8.308;2024-02-23T10:12:07;98433.31;;;9.61;88.42
15634;BME280;14654;48.898;8.308;2024-02-23T10:14:33;98434.91;;;9.65;88.14
15634;BME280;14654;48.898;8.308;2024-02-23T10:16:58;98442.47;;;9.71;88.29
15634;BME280;14654;48.898;8.308;2024-02-23T10:19:24;98438.34;;;9.66;87.53
15634;BME280;14654;48.898;8.308;2024-02-23T10:21:54;98444.78;;;9.79;88.93
15634;BME280;14654;48.898;8.308;2024-02-23T10:24:19;98445.13;;;9.94;88.33
15634;BME280;14654;48.898;8.308;2024-02-23T10:26:44;98445.50;;;10.06;87.18
15634;BME280;14654;48.898;8.308;2024-02-23T10:29:10;98442.59;;;10.16;86.37
15634;BME280;14654;48.898;8.308;2024-02-23T10:31:36;98440.19;;;10.11;85.71
15634;BME280;14654;48.898;8.308;2024-02-23T10:34:07;98438.09;;;10.21;86.45
15634;BME280;14654;48.898;8.308;2024-02-23T10:36:36;98440.63;;;10.22;86.66
15634;BME280;14654;48.898;8.308;2024-02-23T10:39:03;98441.53;;;10.21;85.90
15634;BME280;14654;48.898;8.308;2024-02-23T10:41:34;98436.53;;;10.41;86.79
15634;BME280;14654;48.898;8.308;2024-02-23T10:44:00;98459.03;;;10.61;85.63
15634;BME280;14654;48.898;8.308;2024-02-23T10:46:26;98455.50;;;10.86;83.74
15634;BME280;14654;48.898;8.308;2024-02-23T10:48:54;98453.16;;;11.02;84.52
15634;BME280;14654;48.898;8.308;2024-02-23T10:51:19;98457.31;;;11.06;83.80
15634;BME280;14654;48.898;8.308;2024-02-23T10:53:46;98454.13;;;10.99;81.12
15634;BME280;14654;48.898;8.308;2024-02-23T10:56:13;98459.78;;;11.09;81.85
15634;BME280;14654;48.898;8.308;2024-02-23T10:58:38;98453.94;;;11.04;81.18
15634;BME280;14654;48.898;8.308;2024-02-23T11:01:07;98450.44;;;10.82;82.63
15634;BME280;14654;48.898;8.308;2024-02-23T11:03:35;98448.41;;;10.68;83.49
15634;BME280;14654;48.898;8.308;2024-02-23T11:06:02;98449.66;;;10.58;84.35
15634;BME280;14654;48.898;8.308;2024-02-23T11:08:28;98447.75;;;10.63;85.18
15634;BME280;14654;48.898;8.308;2024-02-23T11:10:54;98452.31;;;10.79;85.76
15634;BME280;14654;48.898;8.308;2024-02-23T11:13:36;98451.34;;;11.04;85.14
15634;BME280;14654;48.898;8.308;2024-02-23T11:16:06;98452.78;;;11.32;83.56
15634;BME280;14654;48.898;8.308;2024-02-23T11:18:32;98452.94;;;11.49;83.62
15634;BME280;14654;48.898;8.308;2024-02-23T11:21:00;98449.31;;;11.53;82.92
15634;BME280;14654;48.898;8.308;2024-02-23T11:23:27;98443.91;;;11.79;83.30
15634;BME280;14654;48.898;8.308;2024-02-23T11:26:19;98445.59;;;12.00;82.90
15634;BME280;14654;48.898;8.308;2024-02-23T11:28:51;98442.31;;;12.16;82.10
15634;BME280;14654;48.898;8.308;2024-02-23T11:31:22;98442.72;;;12.45;79.68
15634;BME280;14654;48.898;8.308;2024-02-23T11:33:55;98433.13;;;12.47;79.06
15634;BME280;14654;48.898;8.308;2024-02-23T11:36:32;98446.44;;;12.39;77.40
15634;BME280;14654;48.898;8.308;2024-02-23T11:38:59;98448.75;;;12.26;78.46
15634;BME280;14654;48.898;8.308;2024-02-23T11:41:26;98441.75;;;12.28;78.54
15634;BME280;14654;48.898;8.308;2024-02-23T11:43:55;98438.25;;;12.29;79.11
15634;BME280;14654;48.898;8.308;2024-02-23T11:46:22;98429.63;;;12.48;77.89
15634;BME280;14654;48.898;8.308;2024-02-23T11:48:47;98430.25;;;12.53;78.18
15634;BME280;14654;48.898;8.308;2024-02-23T11:51:19;98432.22;;;12.48;78.61
15634;BME280;14654;48.898;8.308;2024-02-23T11:53:44;98436.63;;;12.46;78.41
15634;BME280;14654;48.898;8.308;2024-02-23T11:56:10;98433.75;;;12.14;78.08
15634;BME280;14654;48.898;8.308;2024-02-23T11:58:36;98429.41;;;12.14;77.74
15634;BME280;14654;48.898;8.308;2024-02-23T12:01:02;98423.31;;;12.15;78.55
15634;BME280;14654;48.898;8.308;2024-02-23T12:03:31;98423.13;;;12.20;78.51
15634;BME280;14654;48.898;8.308;2024-02-23T12:05:57;98417.34;;;12.32;78.53
15634;BME280;14654;48.898;8.308;2024-02-23T12:08:26;98420.38;;;12.42;78.58
15634;BME280;14654;48.898;8.308;2024-02-23T12:10:56;98418.13;;;12.34;77.40
15634;BME280;14654;48.898;8.308;2024-02-23T12:13:22;98411.53;;;12.46;77.10
15634;BME280;14654;48.898;8.308;2024-02-23T12:15:48;98411.59;;;12.45;77.02
15634;BME280;14654;48.898;8.308;2024-02-23T12:18:13;98410.47;;;12.31;77.42
15634;BME280;14654;48.898;8.308;2024-02-23T12:20:39;98404.44;;;12.12;75.98
15634;BME280;14654;48.898;8.308;2024-02-23T12:23:05;98405.22;;;12.14;76.83
15634;BME280;14654;48.898;8.308;2024-02-23T12:25:31;98400.91;;;12.14;76.20
15634;BME280;14654;48.898;8.308;2024-02-23T12:27:56;98405.28;;;12.31;76.17
15634;BME280;14654;48.898;8.308;2024-02-23T12:30:22;98404.50;;;12.48;76.76
15634;BME280;14654;48.898;8.308;2024-02-23T12:32:48;98398.13;;;12.56;76.73
15634;BME280;14654;48.898;8.308;2024-02-23T12:35:14;98395.94;;;12.65;76.56
15634;BME280;14654;48.898;8.308;2024-02-23T12:37:39;98393.28;;;13.02;75.58
15634;BME280;14654;48.898;8.308;2024-02-23T12:40:06;98384.66;;;13.19;75.68
15634;BME280;14654;48.898;8.308;2024-02-23T12:42:32;98379.94;;;13.45;75.32
15634;BME280;14654;48.898;8.308;2024-02-23T12:44:57;98383.75;;;13.71;75.57
15634;BME280;14654;48.898;8.308;2024-02-23T12:47:22;98381.00;;;13.75;73.07
15634;BME280;14654;48.898;8.308;2024-02-23T12:49:48;98378.31;;;13.43;74.59
15634;BME280;14654;48.898;8.308;2024-02-23T12:52:13;98395.41;;;13.11;75.44
15634;BME280;14654;48.898;8.308;2024-02-23T12:54:39;98390.00;;;13.16;76.16
15634;BME280;14654;48.898;8.308;2024-02-23T12:57:04;98386.34;;;13.20;76.03